createdAt,value
2022-12-07T00:01:14.429Z,7.67
2022-12-07T00:03:43.023Z,7.23
2022-12-07T00:06:12.626Z,7.20
2022-12-07T00:08:39.972Z,7.00
2022-12-07T00:11:09.669Z,7.00
2022-12-07T00:13:37.278Z,7.40
2022-12-07T00:16:13.531Z,8.07
2022-12-07T00:18:40.350Z,7.47
2022-12-07T00:21:13.404Z,7.50
2022-12-07T00:23:41.713Z,7.23
2022-12-07T00:26:11.893Z,7.30
2022-12-07T00:28:39.113Z,8.07
2022-12-07T00:31:08.589Z,8.23
2022-12-07T00:33:35.816Z,7.17
2022-12-07T00:36:05.979Z,7.33
2022-12-07T00:38:34.385Z,8.03
2022-12-07T00:41:16.542Z,7.80
2022-12-07T00:43:44.703Z,6.63
2022-12-07T00:46:12.674Z,7.73
2022-12-07T00:48:40.001Z,9.50
2022-12-07T00:51:07.980Z,7.57
2022-12-07T00:53:41.612Z,8.13
2022-12-07T00:56:11.035Z,7.93
2022-12-07T00:58:37.889Z,9.40
2022-12-07T01:01:07.286Z,9.87
2022-12-07T01:03:34.531Z,8.47
2022-12-07T01:06:02.816Z,8.33
2022-12-07T01:08:29.986Z,9.20
2022-12-07T01:11:07.994Z,8.93
2022-12-07T01:13:36.030Z,8.80
2022-12-07T01:16:05.729Z,7.53
2022-12-07T01:18:35.456Z,7.80
2022-12-07T01:21:07.554Z,7.83
2022-12-07T01:23:35.528Z,7.77
2022-12-07T01:26:05.323Z,7.77
2022-12-07T01:28:32.731Z,8.40
2022-12-07T01:31:06.730Z,7.57
2022-12-07T01:33:36.862Z,8.70
2022-12-07T01:36:19.103Z,8.37
2022-12-07T01:38:47.833Z,8.33
2022-12-07T01:41:15.652Z,8.30
2022-12-07T01:44:07.341Z,7.47
2022-12-07T01:46:34.145Z,7.00
2022-12-07T01:49:01.625Z,8.27
2022-12-07T01:51:29.278Z,8.00
2022-12-07T01:53:56.094Z,7.47
2022-12-07T01:56:27.409Z,7.70
2022-12-07T01:58:55.226Z,7.67
2022-12-07T02:01:22.491Z,7.40
2022-12-07T02:03:50.165Z,7.77
2022-12-07T02:06:21.758Z,7.00
2022-12-07T02:08:48.764Z,7.73
2022-12-07T02:11:16.478Z,8.20
2022-12-07T02:13:45.134Z,7.80
2022-12-07T02:16:34.432Z,7.83
2022-12-07T02:19:35.297Z,6.80
2022-12-07T02:22:43.503Z,8.20
2022-12-07T02:25:19.178Z,6.90
2022-12-07T02:27:49.167Z,6.27
2022-12-07T02:30:21.395Z,6.73
2022-12-07T02:33:01.467Z,6.87
2022-12-07T02:35:40.331Z,5.97
2022-12-07T02:38:44.737Z,6.33
2022-12-07T02:41:17.242Z,6.20
2022-12-07T02:43:48.815Z,5.17
2022-12-07T02:46:19.950Z,6.40
2022-12-07T02:48:48.580Z,7.23
2022-12-07T02:51:15.355Z,5.87
2022-12-07T02:53:44.203Z,5.90
2022-12-07T02:56:41.841Z,5.13
2022-12-07T02:59:29.719Z,6.90
2022-12-07T03:02:02.546Z,5.43
2022-12-07T03:04:38.848Z,6.03
2022-12-07T03:07:35.715Z,4.87
2022-12-07T03:10:18.184Z,4.80
2022-12-07T03:13:16.888Z,5.20
2022-12-07T03:15:54.538Z,4.03
2022-12-07T03:18:24.848Z,4.40
2022-12-07T03:20:54.419Z,5.40
2022-12-07T03:23:23.151Z,4.93
2022-12-07T03:26:00.364Z,4.37
2022-12-07T03:28:34.398Z,4.80
2022-12-07T03:31:13.323Z,3.80
2022-12-07T03:33:51.876Z,4.97
2022-12-07T03:36:27.766Z,4.57
2022-12-07T03:39:10.547Z,5.03
2022-12-07T03:41:44.813Z,4.60
2022-12-07T03:44:12.482Z,4.83
2022-12-07T03:46:48.202Z,4.27
2022-12-07T03:49:33.622Z,4.30
2022-12-07T03:52:21.362Z,4.10
2022-12-07T03:55:00.209Z,4.23
2022-12-07T03:57:29.588Z,4.80
2022-12-07T03:59:57.809Z,4.30
2022-12-07T04:02:27.919Z,3.80
2022-12-07T04:04:55.432Z,4.20
2022-12-07T04:07:22.495Z,4.00
2022-12-07T04:09:49.373Z,4.70
2022-12-07T04:12:17.198Z,4.23
2022-12-07T04:14:43.982Z,4.40
2022-12-07T04:17:10.861Z,3.60
2022-12-07T04:19:38.793Z,3.60
2022-12-07T04:22:06.697Z,3.67
2022-12-07T04:24:34.594Z,3.40
2022-12-07T04:27:01.499Z,3.90
2022-12-07T04:29:28.689Z,2.97
2022-12-07T04:31:55.613Z,3.00
2022-12-07T04:34:22.602Z,3.50
2022-12-07T04:36:49.921Z,3.37
2022-12-07T04:39:26.024Z,3.00
2022-12-07T04:41:52.879Z,3.30
2022-12-07T04:44:20.310Z,3.20
2022-12-07T04:46:47.452Z,3.67
2022-12-07T04:49:15.499Z,3.93
2022-12-07T04:51:42.868Z,3.37
2022-12-07T04:54:09.652Z,3.40
2022-12-07T04:56:36.896Z,3.70
2022-12-07T04:59:04.158Z,3.40
2022-12-07T05:01:31.432Z,3.27
2022-12-07T05:03:58.218Z,3.30
2022-12-07T05:06:25.541Z,3.97
2022-12-07T05:08:52.540Z,3.10
2022-12-07T05:11:38.385Z,3.80
2022-12-07T05:14:16.208Z,3.93
2022-12-07T05:16:44.261Z,3.67
2022-12-07T05:19:11.540Z,3.50
2022-12-07T05:21:38.951Z,2.80
2022-12-07T05:24:06.840Z,3.40
2022-12-07T05:26:33.979Z,3.00
2022-12-07T05:29:00.951Z,3.77
2022-12-07T05:31:28.554Z,3.30
2022-12-07T05:33:55.470Z,3.57
2022-12-07T05:36:22.856Z,3.63
2022-12-07T05:38:49.718Z,3.10
2022-12-07T05:41:37.027Z,3.00
2022-12-07T05:44:04.453Z,3.63
2022-12-07T05:46:31.483Z,3.30
2022-12-07T05:48:58.309Z,3.60
2022-12-07T05:51:25.073Z,3.63
2022-12-07T05:53:51.885Z,4.17
2022-12-07T05:56:18.766Z,3.67
2022-12-07T05:59:04.292Z,4.27
2022-12-07T06:01:31.077Z,4.67
2022-12-07T06:03:57.822Z,4.70
2022-12-07T06:06:24.644Z,3.63
2022-12-07T06:08:51.473Z,4.30
2022-12-07T06:11:36.767Z,4.50
2022-12-07T06:14:03.561Z,4.90
2022-12-07T06:16:30.375Z,5.10
2022-12-07T06:18:57.400Z,5.10
2022-12-07T06:21:24.240Z,6.60
2022-12-07T06:23:50.995Z,5.47
2022-12-07T06:26:17.860Z,6.40
2022-12-07T06:28:44.662Z,6.17
2022-12-07T06:31:14.087Z,6.30
2022-12-07T06:33:41.610Z,7.20
2022-12-07T06:36:09.168Z,6.70
2022-12-07T06:38:36.364Z,7.33
2022-12-07T06:41:03.260Z,7.43
2022-12-07T06:43:30.568Z,7.73
2022-12-07T06:45:57.457Z,7.40
2022-12-07T06:48:24.343Z,7.07
2022-12-07T06:50:55.100Z,7.13
2022-12-07T06:53:23.077Z,7.03
2022-12-07T06:55:50.027Z,8.90
2022-12-07T06:58:17.752Z,8.27
2022-12-07T07:00:45.098Z,7.43
2022-12-07T07:03:12.338Z,7.80
2022-12-07T07:05:39.325Z,7.80
2022-12-07T07:08:22.880Z,7.93
2022-12-07T07:10:50.236Z,8.10
2022-12-07T07:13:17.212Z,8.67
2022-12-07T07:15:44.146Z,8.40
2022-12-07T07:18:11.110Z,7.53
2022-12-07T07:20:38.804Z,8.57
2022-12-07T07:23:06.067Z,7.70
2022-12-07T07:25:33.240Z,6.37
2022-12-07T07:28:00.316Z,7.30
2022-12-07T07:30:28.223Z,7.87
2022-12-07T07:33:02.443Z,7.60
2022-12-07T07:35:31.044Z,8.30
2022-12-07T07:37:58.307Z,8.00
2022-12-07T07:40:25.479Z,8.67
2022-12-07T07:42:53.730Z,8.80
2022-12-07T07:45:22.308Z,6.97
2022-12-07T07:47:49.553Z,7.60
2022-12-07T07:50:17.120Z,8.50
2022-12-07T07:52:44.458Z,9.37
2022-12-07T07:55:11.873Z,7.87
2022-12-07T07:57:40.611Z,7.93
2022-12-07T08:00:14.251Z,8.00
2022-12-07T08:02:43.773Z,7.87
2022-12-07T08:05:12.896Z,7.43
2022-12-07T08:07:40.222Z,7.07
2022-12-07T08:10:10.568Z,7.87
2022-12-07T08:12:58.975Z,7.70
2022-12-07T08:15:27.440Z,7.47
2022-12-07T08:17:54.562Z,8.87
2022-12-07T08:20:21.737Z,7.90
2022-12-07T08:22:48.610Z,9.13
2022-12-07T08:25:15.546Z,8.07
2022-12-07T08:27:42.327Z,9.07
2022-12-07T08:30:09.563Z,8.43
2022-12-07T08:32:36.569Z,7.93
2022-12-07T08:35:03.552Z,7.80
2022-12-07T08:37:30.328Z,10.13
2022-12-07T08:39:57.138Z,8.23
2022-12-07T08:42:28.443Z,9.50
2022-12-07T08:44:55.195Z,8.80
2022-12-07T08:47:22.174Z,7.87
2022-12-07T08:49:52.925Z,8.20
2022-12-07T08:52:19.800Z,8.43
2022-12-07T08:54:46.841Z,8.70
2022-12-07T08:57:13.745Z,9.03
2022-12-07T08:59:41.142Z,9.80
2022-12-07T09:02:08.221Z,9.17
2022-12-07T09:04:35.198Z,9.87
2022-12-07T09:07:02.103Z,8.70
2022-12-07T09:09:28.954Z,8.77
2022-12-07T09:11:55.708Z,8.47
2022-12-07T09:14:22.941Z,9.77
2022-12-07T09:16:49.728Z,8.87
2022-12-07T09:19:20.360Z,9.57
2022-12-07T09:21:47.285Z,9.43
2022-12-07T09:24:14.850Z,9.37
2022-12-07T09:26:41.646Z,9.63
2022-12-07T09:29:08.677Z,7.93
2022-12-07T09:31:37.991Z,8.60
2022-12-07T09:34:06.849Z,7.90
2022-12-07T09:36:34.049Z,8.33
2022-12-07T09:39:00.889Z,8.60
2022-12-07T09:41:30.953Z,7.50
2022-12-07T09:44:24.497Z,8.17
2022-12-07T09:46:53.973Z,7.33
2022-12-07T09:49:26.547Z,7.37
2022-12-07T09:52:22.031Z,8.33
2022-12-07T09:54:51.413Z,7.13
2022-12-07T09:57:20.264Z,7.83
2022-12-07T09:59:47.088Z,7.60
2022-12-07T10:02:39.706Z,8.63
2022-12-07T10:05:11.472Z,6.83
2022-12-07T10:07:38.306Z,8.40
2022-12-07T10:10:14.648Z,6.80
2022-12-07T10:12:55.600Z,7.20
2022-12-07T10:15:22.537Z,7.80
2022-12-07T10:17:53.320Z,7.83
2022-12-07T10:20:28.585Z,8.10
2022-12-07T10:23:04.160Z,7.33
2022-12-07T10:25:34.634Z,7.27
2022-12-07T10:28:17.884Z,7.23
2022-12-07T10:31:06.231Z,5.57
2022-12-07T10:33:49.304Z,5.60
2022-12-07T10:36:23.603Z,6.27
2022-12-07T10:39:03.222Z,6.00
2022-12-07T10:41:30.052Z,5.53
2022-12-07T10:43:58.947Z,5.87
2022-12-07T10:46:35.137Z,7.07
2022-12-07T10:49:37.472Z,5.20
2022-12-07T10:52:36.718Z,5.37
2022-12-07T10:55:41.826Z,4.50
2022-12-07T10:58:52.948Z,4.20
2022-12-07T11:01:31.931Z,4.50
2022-12-07T11:04:36.446Z,3.93
2022-12-07T11:07:17.315Z,4.27
2022-12-07T11:10:14.048Z,3.87
2022-12-07T11:13:09.013Z,3.40
2022-12-07T11:16:02.476Z,3.80
2022-12-07T11:18:36.652Z,3.00
2022-12-07T11:21:09.332Z,3.30
2022-12-07T11:24:09.889Z,3.10
2022-12-07T11:26:51.452Z,3.50
2022-12-07T11:29:55.465Z,2.93
2022-12-07T11:32:40.739Z,3.00
2022-12-07T11:35:32.852Z,2.90
2022-12-07T11:38:08.890Z,2.60
2022-12-07T11:40:37.961Z,2.50
2022-12-07T11:43:17.500Z,2.30
2022-12-07T11:45:47.606Z,2.47
2022-12-07T11:49:00.609Z,2.97
2022-12-07T11:51:33.378Z,3.20
2022-12-07T11:54:06.532Z,2.47
2022-12-07T11:56:39.349Z,2.97
2022-12-07T11:59:29.264Z,2.73
2022-12-07T12:02:14.002Z,3.50
2022-12-07T12:05:08.355Z,3.30
2022-12-07T12:10:59.915Z,3.17
2022-12-07T12:17:11.189Z,2.50
2022-12-07T12:20:05.443Z,2.83
2022-12-07T12:22:42.468Z,2.80
2022-12-07T12:25:27.581Z,3.10
2022-12-07T12:27:58.725Z,2.90
2022-12-07T12:30:40.833Z,3.00
2022-12-07T12:33:29.562Z,3.03
2022-12-07T12:36:17.787Z,2.97
2022-12-07T12:39:11.737Z,3.17
2022-12-07T12:41:39.307Z,3.27
2022-12-07T12:44:21.356Z,3.70
2022-12-07T12:46:51.170Z,3.47
2022-12-07T12:49:18.149Z,3.83
2022-12-07T12:52:05.012Z,3.53
2022-12-07T12:54:34.480Z,3.83
2022-12-07T12:57:05.891Z,3.73
2022-12-07T13:00:04.882Z,3.57
2022-12-07T13:02:38.559Z,4.00
2022-12-07T13:05:08.978Z,3.47
2022-12-07T13:07:48.281Z,3.63
2022-12-07T13:10:30.284Z,3.50
2022-12-07T13:13:12.110Z,3.40
2022-12-07T13:15:46.141Z,3.30
2022-12-07T13:18:31.611Z,3.47
2022-12-07T13:21:08.475Z,3.30
2022-12-07T13:23:47.314Z,4.07
2022-12-07T13:26:31.753Z,3.30
2022-12-07T13:29:22.579Z,3.43
2022-12-07T13:31:58.048Z,2.77
2022-12-07T13:34:43.588Z,3.27
2022-12-07T13:37:26.922Z,3.43
2022-12-07T13:40:22.321Z,3.03
2022-12-07T13:42:49.205Z,3.83
2022-12-07T13:45:48.008Z,3.33
2022-12-07T13:48:36.657Z,3.20
2022-12-07T13:51:05.260Z,3.13
2022-12-07T13:53:32.272Z,3.87
2022-12-07T13:56:00.765Z,4.80
2022-12-07T13:58:31.889Z,4.87
2022-12-07T14:01:00.102Z,4.47
2022-12-07T14:03:39.307Z,4.80
2022-12-07T14:06:17.842Z,5.27
2022-12-07T14:08:46.210Z,4.83
2022-12-07T14:11:21.607Z,5.37
2022-12-07T14:13:56.857Z,4.33
2022-12-07T14:16:31.136Z,4.37
2022-12-07T14:19:01.019Z,4.50
2022-12-07T14:21:35.528Z,4.77
2022-12-07T14:24:20.156Z,4.27
2022-12-07T14:26:48.845Z,4.03
2022-12-07T14:29:28.304Z,4.07
2022-12-07T14:31:56.129Z,4.27
2022-12-07T14:34:24.415Z,4.20
2022-12-07T14:36:51.872Z,5.23
2022-12-07T14:39:18.689Z,4.23
2022-12-07T14:41:51.868Z,5.03
2022-12-07T14:44:25.845Z,3.57
2022-12-07T14:49:42.183Z,3.70
2022-12-07T14:55:04.656Z,4.13
2022-12-07T14:57:31.720Z,5.33
2022-12-07T14:59:58.474Z,6.20
2022-12-07T15:02:25.247Z,7.47
2022-12-07T15:04:52.128Z,5.57
2022-12-07T15:07:22.629Z,4.80
2022-12-07T15:09:49.886Z,3.70
2022-12-07T15:12:17.043Z,3.33
2022-12-07T15:14:43.882Z,3.60
2022-12-07T15:17:23.411Z,4.10
2022-12-07T15:19:54.878Z,3.77
2022-12-07T15:22:21.683Z,3.80
2022-12-07T15:24:48.438Z,3.87
2022-12-07T15:27:15.221Z,4.13
2022-12-07T15:29:41.992Z,3.50
2022-12-07T15:32:08.857Z,3.73
2022-12-07T15:34:39.833Z,3.57
2022-12-07T15:37:08.571Z,4.67
2022-12-07T15:39:35.535Z,3.90
2022-12-07T15:42:02.424Z,3.87
2022-12-07T15:44:47.651Z,3.53
2022-12-07T15:47:14.457Z,4.60
2022-12-07T15:49:41.233Z,3.70
2022-12-07T15:52:15.273Z,4.03
2022-12-07T15:54:42.183Z,3.80
2022-12-07T15:57:08.956Z,4.87
2022-12-07T15:59:36.067Z,5.07
2022-12-07T16:02:03.019Z,3.77
2022-12-07T16:04:33.047Z,3.83
2022-12-07T16:06:59.926Z,4.47
2022-12-07T16:09:27.679Z,5.20
2022-12-07T16:11:54.536Z,4.57
2022-12-07T16:14:21.939Z,4.83
2022-12-07T16:16:49.463Z,5.30
2022-12-07T16:19:16.586Z,5.30
2022-12-07T16:21:43.393Z,5.77
2022-12-07T16:24:11.243Z,5.47
2022-12-07T16:26:38.142Z,4.97
2022-12-07T16:29:04.918Z,6.07
2022-12-07T16:31:31.782Z,13.70
2022-12-07T16:33:59.823Z,9.40
2022-12-07T16:37:01.989Z,6.63
2022-12-07T16:39:15.606Z,6.47
2022-12-07T16:41:42.592Z,6.17
2022-12-07T16:44:13.231Z,6.60
2022-12-07T16:46:40.166Z,7.53
2022-12-07T16:49:06.961Z,7.63
2022-12-07T16:51:35.691Z,8.83
2022-12-07T16:54:02.496Z,8.67
2022-12-07T16:56:30.204Z,8.20
2022-12-07T16:58:59.469Z,8.20
2022-12-07T17:01:29.316Z,7.80
2022-12-07T17:03:58.091Z,7.73
2022-12-07T17:06:28.498Z,7.17
2022-12-07T17:08:56.968Z,7.23
2022-12-07T17:11:29.557Z,6.40
2022-12-07T17:14:15.549Z,7.03
2022-12-07T17:16:42.792Z,7.00
2022-12-07T17:19:13.672Z,6.67
2022-12-07T17:21:40.761Z,6.50
2022-12-07T17:24:10.676Z,6.03
2022-12-07T17:26:37.922Z,8.07
2022-12-07T17:29:06.143Z,7.57
2022-12-07T17:31:33.590Z,7.30
2022-12-07T17:34:00.741Z,7.50
2022-12-07T17:36:29.944Z,7.77
2022-12-07T17:38:57.531Z,10.07
2022-12-07T17:41:45.578Z,6.70
2022-12-07T17:44:17.580Z,9.47
2022-12-07T17:46:45.105Z,9.37
2022-12-07T17:49:12.149Z,10.23
2022-12-07T17:51:57.647Z,9.83
2022-12-07T17:54:24.780Z,9.43
2022-12-07T17:56:52.112Z,14.07
2022-12-07T17:59:18.953Z,16.83
2022-12-07T18:01:47.023Z,22.97
2022-12-07T18:04:13.952Z,16.03
2022-12-07T18:06:41.237Z,17.17
2022-12-07T18:09:08.606Z,19.20
2022-12-07T18:11:36.139Z,14.03
2022-12-07T18:14:03.564Z,89.83
2022-12-07T18:16:34.363Z,63.17
2022-12-07T18:19:03.945Z,21.40
2022-12-07T18:21:31.826Z,14.47
2022-12-07T18:24:04.628Z,11.60
2022-12-07T18:26:35.787Z,11.30
2022-12-07T18:29:03.602Z,10.60
2022-12-07T18:31:30.542Z,12.63
2022-12-07T18:34:01.895Z,13.20
2022-12-07T18:36:28.726Z,13.03
2022-12-07T18:38:55.534Z,22.67
2022-12-07T18:41:22.374Z,14.63
2022-12-07T18:43:49.198Z,20.73
2022-12-07T18:46:19.085Z,35.60
2022-12-07T18:48:46.823Z,14.73
2022-12-07T18:51:15.214Z,13.57
2022-12-07T18:53:43.155Z,16.67
2022-12-07T18:56:20.221Z,19.73
2022-12-07T18:59:17.839Z,20.77
2022-12-07T19:01:48.898Z,20.10
2022-12-07T19:04:16.471Z,17.63
2022-12-07T19:06:44.769Z,13.53
2022-12-07T19:09:12.973Z,13.00
2022-12-07T19:11:52.827Z,13.83
2022-12-07T19:14:27.112Z,14.37
2022-12-07T19:16:59.529Z,15.10
2022-12-07T19:19:34.476Z,11.67
2022-12-07T19:22:02.213Z,12.43
2022-12-07T19:24:30.047Z,11.27
2022-12-07T19:26:57.520Z,13.97
2022-12-07T19:29:24.392Z,16.50
2022-12-07T19:31:51.326Z,15.90
2022-12-07T19:34:18.454Z,12.57
2022-12-07T19:36:46.192Z,11.30
2022-12-07T19:39:15.471Z,11.60
2022-12-07T19:41:45.564Z,12.90
2022-12-07T19:44:18.665Z,12.13
2022-12-07T19:46:47.539Z,11.97
2022-12-07T19:49:18.285Z,17.00
2022-12-07T19:51:47.505Z,62.07
2022-12-07T19:54:15.920Z,35.30
2022-12-07T19:56:43.595Z,24.80
2022-12-07T19:59:11.981Z,13.60
2022-12-07T20:01:40.746Z,13.50
2022-12-07T20:04:11.255Z,13.20
2022-12-07T20:06:38.938Z,53.33
2022-12-07T20:09:06.667Z,61.20
2022-12-07T20:11:52.466Z,16.30
2022-12-07T20:14:19.269Z,18.97
2022-12-07T20:16:46.140Z,21.10
2022-12-07T20:19:14.596Z,52.37
2022-12-07T20:21:43.107Z,27.57
2022-12-07T20:24:17.440Z,54.27
2022-12-07T20:26:45.300Z,13.13
2022-12-07T20:29:18.129Z,54.30
2022-12-07T20:31:49.023Z,20.97
2022-12-07T20:34:16.380Z,21.07
2022-12-07T20:36:43.231Z,16.80
2022-12-07T20:39:10.390Z,44.13
2022-12-07T20:41:57.145Z,45.63
2022-12-07T20:44:24.190Z,51.57
2022-12-07T20:46:51.075Z,49.23
2022-12-07T20:49:18.467Z,38.27
2022-12-07T20:51:46.428Z,37.97
2022-12-07T20:54:14.292Z,12.87
2022-12-07T20:56:41.849Z,12.03
2022-12-07T20:59:12.625Z,14.90
2022-12-07T21:01:40.115Z,13.97
2022-12-07T21:04:07.835Z,12.07
2022-12-07T21:06:34.644Z,11.43
2022-12-07T21:09:01.440Z,14.33
2022-12-07T21:11:30.522Z,23.23
2022-12-07T21:13:57.655Z,11.13
2022-12-07T21:16:28.717Z,10.30
2022-12-07T21:19:02.807Z,11.97
2022-12-07T21:21:31.654Z,11.47
2022-12-07T21:24:02.545Z,11.57
2022-12-07T21:26:30.551Z,25.13
2022-12-07T21:31:48.617Z,27.90
2022-12-07T21:34:15.671Z,17.40
2022-12-07T21:36:42.524Z,17.23
2022-12-07T21:39:09.445Z,12.43
2022-12-07T21:41:37.671Z,12.17
2022-12-07T21:44:10.514Z,12.37
2022-12-07T21:46:39.136Z,23.17
2022-12-07T21:49:13.015Z,59.70
2022-12-07T21:51:41.886Z,14.23
2022-12-07T21:54:10.527Z,17.83
2022-12-07T21:56:40.358Z,18.53
2022-12-07T21:59:11.372Z,43.90
2022-12-07T22:01:40.587Z,17.93
2022-12-07T22:04:09.648Z,15.60
2022-12-07T22:06:37.805Z,13.50
2022-12-07T22:09:06.686Z,15.70
2022-12-07T22:11:34.428Z,14.97
2022-12-07T22:14:19.740Z,11.87
2022-12-07T22:16:46.502Z,12.43
2022-12-07T22:19:14.074Z,13.20
2022-12-07T22:21:41.159Z,13.17
2022-12-07T22:24:08.616Z,12.53
2022-12-07T22:26:35.583Z,12.97
2022-12-07T22:29:02.418Z,11.20
2022-12-07T22:31:29.432Z,11.83
2022-12-07T22:33:56.365Z,11.47
2022-12-07T22:36:23.273Z,11.80
2022-12-07T22:38:50.196Z,12.40
2022-12-07T22:41:28.496Z,12.33
2022-12-07T22:43:56.518Z,11.07
2022-12-07T22:46:25.010Z,11.97
2022-12-07T22:48:52.728Z,12.03
2022-12-07T22:51:31.733Z,13.00
2022-12-07T22:54:00.821Z,12.97
2022-12-07T22:56:29.611Z,11.90
2022-12-07T22:58:56.955Z,14.03
2022-12-07T23:01:24.858Z,11.90
2022-12-07T23:03:52.477Z,12.67
2022-12-07T23:06:24.815Z,12.17
2022-12-07T23:08:52.158Z,12.43
2022-12-07T23:11:40.599Z,12.47
2022-12-07T23:14:16.741Z,12.17
2022-12-07T23:16:44.740Z,11.87
2022-12-07T23:19:12.128Z,13.27
2022-12-07T23:21:40.675Z,11.40
2022-12-07T23:24:07.994Z,12.70
2022-12-07T23:26:34.811Z,11.63
2022-12-07T23:29:01.595Z,11.00
2022-12-07T23:31:28.425Z,11.13
2022-12-07T23:33:55.246Z,10.50
2022-12-07T23:36:26.850Z,12.60
2022-12-07T23:38:56.600Z,11.83
2022-12-07T23:41:25.960Z,11.30
2022-12-07T23:43:57.202Z,11.50
2022-12-07T23:46:27.174Z,10.80
2022-12-07T23:48:55.483Z,10.43
2022-12-07T23:51:22.637Z,10.93
2022-12-07T23:53:51.893Z,10.13
2022-12-07T23:56:29.165Z,10.53
2022-12-07T23:58:57.113Z,11.20
